Saint Francis, Maine
Current Conditions -  °F | °C
As of 8:53 AM on Thursday 30 Oct 2014 (Local Time) from KFVE Reporting Station
Clear Clear  
Wind Chill: 34°   Ceiling: Unl
Heat Index: 40°   Visibility: 10mi
Dew Point: 31°   Wind: 9mph
Humidity: 70%   Direction: 310°NW
Pressure: 29.78"   Gusts: NA
Location:  47.17°N, 68.89°W
Report Text: KFVE 301253Z AUTO 31008KT 10SM CLR 04/M01 A2978 RMK AO2 SLP087 T00441006
Loading
Personal Weather Stations






























Interactive Weather Map
Tropical Storm Tracking
New forecast layout! Learn more

10-Day Weather Forecast

Advertisements
Track Severe Weather on mobile